Time;durP1;ratioP1;P1;durP2;ratioP2;P2;SDS_P1;SDS_P2;PMS_P1;PMS_P2;Temp;Humidity;BMP_temperature;BMP_pressure;BME280_temperature;BME280_humidity;BME280_pressure;Samples;Min_cycle;Max_cycle;Signal;HPM_P1;HPM_P2
2021/10/06 00:01:23;;;;;;;2.70;1.33;;;;;;;;;;5054616;28;20390;-77
2021/10/06 00:04:26;;;;;;;2.10;1.20;;;11.10;1.00;;;;;;5036821;28;20446;-78
2021/10/06 00:07:14;;;;;;;1.27;1.17;;;11.10;1.00;;;;;;5042952;28;20496;-78
2021/10/06 00:09:45;;;;;;;3.93;1.80;;;;;;;;;;5055189;28;20398;-78
2021/10/06 00:12:44;;;;;;;1.47;1.30;;;11.10;1.00;;;;;;5051656;28;20501;-78
2021/10/06 00:15:11;;;;;;;6.07;1.20;;;11.10;1.00;;;;;;5034572;28;20392;-78
2021/10/06 00:17:45;;;;;;;1.70;1.23;;;;;;;;;;5046166;28;20437;-78
2021/10/06 00:20:16;;;;;;;2.97;0.90;;;11.00;1.00;;;;;;5034449;28;20446;-78
2021/10/06 00:22:51;;;;;;;1.27;1.00;;;;;;;;;;5033280;28;20472;-78
2021/10/06 00:25:17;;;;;;;8.70;1.10;;;;;;;;;;5034540;28;20857;-78
2021/10/06 00:27:51;;;;;;;4.73;1.27;;;;;;;;;;5034376;28;20400;-78
2021/10/06 00:30:38;;;;;;;3.80;1.20;;;11.00;1.00;;;;;;5034989;28;20731;-78
2021/10/06 00:33:04;;;;;;;3.37;1.20;;;;;;;;;;5038594;28;20457;-78
2021/10/06 00:36:20;;;;;;;3.53;1.30;;;11.00;1.00;;;;;;5052608;28;20874;-78
2021/10/06 00:39:03;;;;;;;0.70;0.70;;;;;;;;;;5053146;28;20411;-77
2021/10/06 00:41:33;;;;;;;9.53;1.30;;;;;;;;;;5054080;28;20387;-77
2021/10/06 00:44:18;;;;;;;3.13;1.10;;;11.10;1.00;;;;;;5053975;28;20477;-77
2021/10/06 00:46:56;;;;;;;4.50;0.90;;;;;;;;;;5053959;28;20940;-77
2021/10/06 00:49:22;;;;;;;2.20;0.93;;;;;;;;;;5052717;28;20437;-77
2021/10/06 00:51:51;;;;;;;1.77;0.80;;;;;;;;;;5052644;28;20767;-77
2021/10/06 00:54:27;;;;;;;1.20;1.07;;;;;;;;;;5052963;28;20453;-78
2021/10/06 00:57:14;;;;;;;5.27;1.23;;;11.10;1.00;;;;;;5071638;28;20412;-78
2021/10/06 00:59:40;;;;;;;2.13;1.27;;;;;;;;;;5071093;28;20393;-78
2021/10/06 01:02:21;;;;;;;2.27;1.20;;;;;;;;;;5053632;28;20398;-78
2021/10/06 01:05:14;;;;;;;0.80;0.70;;;11.20;1.00;;;;;;5050242;28;20440;-78
2021/10/06 01:07:45;;;;;;;4.50;1.00;;;;;;;;;;5033899;28;20454;-78
2021/10/06 01:10:21;;;;;;;2.20;0.90;;;;;;;;;;5045620;28;20449;-78
2021/10/06 01:12:47;;;;;;;1.30;1.03;;;;;;;;;;5065158;28;20410;-79
2021/10/06 01:15:15;;;;;;;7.70;1.50;;;;;;;;;;5053485;28;20399;-78
2021/10/06 01:18:02;;;;;;;2.73;1.03;;;11.00;1.00;;;;;;5053951;28;20397;-78
2021/10/06 01:20:45;;;;;;;1.07;0.90;;;;;;;;;;5053613;28;20438;-78
2021/10/06 01:23:13;;;;;;;5.33;1.57;;;11.00;1.00;;;;;;5053896;28;20394;-78
2021/10/06 01:29:02;;;;;;;0.70;0.60;;;;;;;;;;5073433;28;20429;-77
2021/10/06 01:31:33;;;;;;;1.67;0.90;;;;;;;;;;5073571;28;20930;-77
2021/10/06 01:34:14;;;;;;;0.90;0.90;;;;;;;;;;5065281;28;20410;-77
2021/10/06 01:36:41;;;;;;;2.87;1.13;;;;;;;;;;5053136;28;20413;-78
2021/10/06 01:42:27;;;;;;;1.10;1.00;;;;;;;;;;5053186;28;20377;-78
2021/10/06 01:45:30;;;;;;;5.17;1.00;;;10.90;1.00;;;;;;5053315;28;20410;-78
2021/10/06 01:48:08;;;;;;;2.00;1.00;;;10.90;1.00;;;;;;5030989;28;20521;-78
2021/10/06 01:50:41;;;;;;;1.27;1.13;;;10.90;1.00;;;;;;5041645;28;20418;-78
2021/10/06 01:53:21;;;;;;;4.17;0.90;;;;;;;;;;5034436;28;20402;-78
2021/10/06 01:55:51;;;;;;;4.70;1.03;;;;;;;;;;5031431;28;20817;-78
2021/10/06 01:58:21;;;;;;;1.00;0.87;;;;;;;;;;5031196;28;20387;-77
2021/10/06 02:00:51;;;;;;;3.90;0.90;;;;;;;;;;5034111;28;20449;-77
2021/10/06 02:03:21;;;;;;;2.30;1.20;;;;;;;;;;5031681;28;20399;-77
2021/10/06 02:05:50;;;;;;;1.20;1.10;;;;;;;;;;5017621;28;20470;-77
2021/10/06 02:08:21;;;;;;;1.33;1.23;;;;;;;;;;5034358;28;20417;-77
2021/10/06 02:10:57;;;;;;;12.83;1.10;;;;;;;;;;5021182;28;20426;-77
2021/10/06 02:13:27;;;;;;;1.53;0.90;;;;;;;;;;5045685;28;20752;-77
2021/10/06 02:15:57;;;;;;;7.17;1.90;;;;;;;;;;5013756;28;20514;-77
2021/10/06 02:18:23;;;;;;;2.27;0.93;;;;;;;;;;5030770;28;20798;-78
2021/10/06 02:20:49;;;;;;;7.93;1.87;;;;;;;;;;5031414;28;20450;-78
2021/10/06 02:23:15;;;;;;;3.43;1.60;;;;;;;;;;5052235;28;20469;-78
2021/10/06 02:26:26;;;;;;;2.50;1.17;;;11.20;1.00;;;;;;5050679;28;20425;-78
2021/10/06 02:28:52;;;;;;;5.67;1.50;;;;;;;;;;5066855;28;20457;-77
2021/10/06 02:31:21;;;;;;;0.87;0.87;;;;;;;;;;5067629;28;20421;-77
2021/10/06 02:33:51;;;;;;;7.20;1.60;;;;;;;;;;5056334;28;20394;-77
2021/10/06 02:36:20;;;;;;;1.30;1.20;;;;;;;;;;5040788;28;20415;-78
2021/10/06 02:38:51;;;;;;;7.60;1.70;;;11.40;1.00;;;;;;5036064;28;20886;-78
2021/10/06 02:41:33;;;;;;;2.03;1.30;;;;;;;;;;5041233;28;21023;-78
2021/10/06 02:44:09;;;;;;;1.97;1.07;;;;;;;;;;5055065;28;20410;-78
2021/10/06 02:46:39;;;;;;;3.43;1.10;;;;;;;;;;5056010;28;20441;-77
2021/10/06 02:49:09;;;;;;;1.57;1.00;;;;;;;;;;5055929;28;20869;-77
2021/10/06 02:51:35;;;;;;;4.83;1.30;;;;;;;;;;5055997;28;20391;-77
2021/10/06 02:54:03;;;;;;;2.80;1.50;;;;;;;;;;5055927;28;20456;-77
2021/10/06 02:56:33;;;;;;;1.10;1.00;;;;;;;;;;5056000;28;20901;-77
2021/10/06 02:58:59;;;;;;;2.30;1.40;;;;;;;;;;5055931;28;20430;-77
2021/10/06 03:01:27;;;;;;;4.90;1.53;;;;;;;;;;5054731;28;20416;-77
2021/10/06 03:04:03;;;;;;;5.50;1.53;;;;;;;;;;5055835;28;20448;-78
2021/10/06 03:06:29;;;;;;;5.27;1.10;;;;;;;;;;5067847;28;20452;-77
2021/10/06 03:08:57;;;;;;;3.73;1.60;;;;;;;;;;5075805;28;20451;-77
2021/10/06 03:11:23;;;;;;;1.53;1.37;;;;;;;;;;5076046;28;20400;-78
2021/10/06 03:13:49;;;;;;;4.40;1.17;;;;;;;;;;5075692;28;20402;-78
2021/10/06 03:16:27;;;;;;;2.37;1.40;;;;;;;;;;5075621;28;20401;-78
2021/10/06 03:18:57;;;;;;;0.90;0.90;;;;;;;;;;5074225;28;20420;-77
2021/10/06 03:21:33;;;;;;;1.50;1.40;;;;;;;;;;5075729;28;20496;-77
2021/10/06 03:24:09;;;;;;;1.57;1.20;;;;;;;;;;5075424;28;20409;-77
2021/10/06 03:26:39;;;;;;;2.03;1.00;;;;;;;;;;5075649;28;20928;-78
2021/10/06 03:29:21;;;;;;;3.40;1.23;;;;;;;;;;5074132;28;20893;-77
2021/10/06 03:31:57;;;;;;;2.00;1.33;;;;;;;;;;5074186;28;20898;-78
2021/10/06 03:34:33;;;;;;;2.27;1.60;;;;;;;;;;5055164;28;20401;-77
2021/10/06 03:36:59;;;;;;;5.10;1.70;;;;;;;;;;5053526;28;20417;-77
2021/10/06 03:39:27;;;;;;;5.23;1.83;;;;;;;;;;5054044;28;20467;-78
2021/10/06 03:41:57;;;;;;;3.13;1.23;;;;;;;;;;5055552;28;20846;-77
2021/10/06 03:44:27;;;;;;;2.10;1.43;;;;;;;;;;5055303;28;20849;-80
2021/10/06 03:46:53;;;;;;;1.20;1.10;;;;;;;;;;5041747;28;20447;-80
2021/10/06 03:49:27;;;;;;;3.70;1.10;;;;;;;;;;5034918;28;20411;-80
2021/10/06 03:52:14;;;;;;;5.13;2.13;;;10.60;1.00;;;;;;5049745;28;20411;-78
2021/10/06 03:54:45;;;;;;;2.00;1.40;;;;;;;;;;5037017;28;20407;-79
2021/10/06 03:57:15;;;;;;;5.03;1.50;;;;;;;;;;5035107;28;20391;-78
2021/10/06 03:59:45;;;;;;;3.63;1.40;;;;;;;;;;5033588;28;20878;-77
2021/10/06 04:02:44;;;;;;;1.83;1.20;;;;;;;;;;5050766;28;20470;-77
2021/10/06 04:05:21;;;;;;;4.43;1.13;;;;;;;;;;5071717;28;20792;-77
2021/10/06 04:07:57;;;;;;;1.30;1.20;;;;;;;;;;5066564;28;20446;-77
2021/10/06 04:10:44;;;;;;;2.83;1.37;;;10.40;1.00;;;;;;5054565;28;20402;-77
2021/10/06 04:13:38;;;;;;;4.20;1.50;;;10.30;1.00;;;;;;5054472;28;20486;-79
2021/10/06 04:16:44;;;;;;;4.60;1.50;;;10.40;1.00;;;;;;5054892;28;20437;-80
2021/10/06 04:19:15;;;;;;;5.73;1.10;;;;;;;;;;5068194;28;20418;-79
2021/10/06 04:21:41;;;;;;;1.53;1.30;;;;;;;;;;5062388;28;20407;-79
2021/10/06 04:24:32;;;;;;;1.83;1.43;;;10.50;1.00;;;;;;5064828;28;20409;-79
2021/10/06 04:26:58;;;;;;;1.43;1.30;;;;;;;;;;5033365;28;20455;-77
2021/10/06 04:29:50;;;;;;;4.20;1.60;;;10.60;1.00;;;;;;5034191;28;20489;-77
2021/10/06 04:32:27;;;;;;;5.33;1.90;;;;;;;;;;5056089;28;20430;-77
2021/10/06 04:35:03;;;;;;;3.80;1.40;;;;;;;;;;5035053;28;21035;-78
2021/10/06 04:37:33;;;;;;;3.33;2.00;;;;;;;;;;5054624;28;20386;-79
2021/10/06 04:40:04;;;;;;;3.17;1.67;;;10.60;1.00;;;;;;5054232;28;20785;-78
2021/10/06 04:42:33;;;;;;;1.23;1.10;;;10.60;1.00;;;;;;5057370;28;20497;-77
2021/10/06 04:45:21;;;;;;;4.30;1.43;;;10.60;1.00;;;;;;5053716;28;20520;-78
2021/10/06 04:48:03;;;;;;;1.70;1.20;;;;;;;;;;5053335;28;20941;-77
2021/10/06 04:50:30;;;;;;;6.90;1.40;;;;;;;;;;5033865;28;20395;-77
2021/10/06 04:53:05;;;;;;;1.40;1.30;;;10.70;1.00;;;;;;5033880;28;20409;-78
2021/10/06 04:55:33;;;;;;;13.90;1.67;;;;;;;;;;5033787;28;20893;-78
2021/10/06 04:58:15;;;;;;;15.23;1.93;;;;;;;;;;5034234;28;20419;-79
2021/10/06 05:03:51;;;;;;;1.47;1.10;;;;;;;;;;5053544;28;20497;-77
2021/10/06 05:06:21;;;;;;;3.73;1.80;;;;;;;;;;5055341;28;20460;-77
2021/10/06 05:09:15;;;;;;;3.90;1.80;;;;;;;;;;5068537;28;20414;-77
2021/10/06 05:11:45;;;;;;;3.80;1.43;;;;;;;;;;5034095;28;20392;-77
2021/10/06 05:14:11;;;;;;;9.90;2.43;;;;;;;;;;5033465;28;20390;-78
2021/10/06 05:16:54;;;;;;;18.53;2.87;;;;;;;;;;5044373;28;20427;-77
2021/10/06 05:19:21;;;;;;;13.43;2.50;;;;;;;;;;5050220;28;20894;-77
2021/10/06 05:21:51;;;;;;;2.73;1.50;;;;;;;;;;5040576;28;20432;-78
2021/10/06 05:24:27;;;;;;;6.80;1.80;;;;;;;;;;5051826;28;20426;-77
2021/10/06 05:27:03;;;;;;;4.00;1.90;;;;;;;;;;5056101;28;20465;-78
2021/10/06 05:29:33;;;;;;;2.40;1.33;;;;;;;;;;5073329;28;20390;-78
2021/10/06 05:32:06;;;;;;;4.50;1.50;;;;;;;;;;5050361;28;20508;-77
2021/10/06 05:34:33;;;;;;;1.47;1.20;;;;;;;;;;5053440;28;20417;-78
2021/10/06 05:37:09;;;;;;;2.20;1.63;;;;;;;;;;5051743;28;20414;-78
2021/10/06 05:39:39;;;;;;;9.20;2.10;;;;;;;;;;5033374;28;20468;-78
2021/10/06 05:42:15;;;;;;;28.97;3.47;;;;;;;;;;5036294;28;20418;-78
2021/10/06 05:44:51;;;;;;;6.50;1.67;;;;;;;;;;5052029;28;20472;-77
2021/10/06 05:47:21;;;;;;;5.40;1.70;;;;;;;;;;5053310;28;20531;-78
2021/10/06 05:49:57;;;;;;;13.37;2.57;;;;;;;;;;5068366;28;20409;-78
2021/10/06 05:52:23;;;;;;;8.33;1.80;;;;;;;;;;5072043;28;20427;-78
2021/10/06 05:54:51;;;;;;;4.70;2.00;;;;;;;;;;5067563;28;20912;-77
2021/10/06 05:57:21;;;;;;;5.40;2.40;;;;;;;;;;5053365;28;20861;-78
2021/10/06 06:00:04;;;;;;;3.70;1.53;;;;;;;;;;5053163;28;20505;-77
2021/10/06 06:02:42;;;;;;;8.97;1.80;;;11.20;1.00;;;;;;5057159;28;20390;-77
2021/10/06 06:05:16;;;;;;;1.53;1.27;;;11.20;1.00;;;;;;5054094;28;20793;-78
2021/10/06 06:07:45;;;;;;;9.60;2.07;;;11.30;1.00;;;;;;5056385;28;20454;-77
2021/10/06 06:10:21;;;;;;;5.60;1.70;;;;;;;;;;5055678;28;20544;-77
2021/10/06 06:12:57;;;;;;;5.07;1.37;;;;;;;;;;5035970;28;20405;-77
2021/10/06 06:15:39;;;;;;;2.53;1.70;;;;;;;;;;5050092;28;20751;-78
2021/10/06 06:18:21;;;;;;;5.20;2.00;;;;;;;;;;5045354;28;20507;-78
2021/10/06 06:21:03;;;;;;;1.83;1.40;;;;;;;;;;5057514;28;20422;-77
2021/10/06 06:23:33;;;;;;;4.77;1.80;;;;;;;;;;5056636;28;20398;-78
2021/10/06 06:26:09;;;;;;;3.83;1.77;;;;;;;;;;5054955;28;20604;-77
2021/10/06 06:28:39;;;;;;;5.53;1.30;;;;;;;;;;5056606;28;20909;-78
2021/10/06 06:31:06;;;;;;;1.50;1.40;;;11.60;1.00;;;;;;5046518;28;20426;-78
2021/10/06 06:33:33;;;;;;;2.70;1.27;;;;;;;;;;5056543;28;20831;-78
2021/10/06 06:36:20;;;;;;;3.13;1.27;;;11.70;1.00;;;;;;5056338;28;20444;-78
2021/10/06 06:39:03;;;;;;;8.00;1.83;;;;;;;;;;5055163;28;20402;-78
2021/10/06 06:41:29;;;;;;;1.90;1.20;;;;;;;;;;5053011;28;20506;-78
2021/10/06 06:44:14;;;;;;;4.00;1.57;;;12.00;1.00;;;;;;5056350;28;20885;-80
2021/10/06 06:46:45;;;;;;;2.70;1.40;;;;;;;;;;5036279;28;20977;-79
2021/10/06 06:49:38;;;;;;;5.20;1.30;;;12.10;1.00;;;;;;5036391;28;20396;-79
2021/10/06 06:52:09;;;;;;;2.03;1.27;;;;;;;;;;5036763;28;20391;-78
2021/10/06 06:54:35;;;;;;;2.30;1.40;;;;;;;;;;5036456;28;20383;-77
2021/10/06 06:57:02;;;;;;;1.70;1.57;;;;;;;;;;5036397;28;20398;-77
2021/10/06 06:59:33;;;;;;;4.40;1.20;;;;;;;;;;5036176;28;20808;-78
2021/10/06 07:02:15;;;;;;;3.47;1.23;;;;;;;;;;5034742;28;20776;-78
2021/10/06 07:04:45;;;;;;;5.23;1.50;;;;;;;;;;5035963;28;20427;-78
2021/10/06 07:07:15;;;;;;;5.30;1.70;;;;;;;;;;5039367;28;20968;-77
2021/10/06 07:09:48;;;;;;;3.77;1.30;;;;;;;;;;5055874;28;20486;-77
2021/10/06 07:12:27;;;;;;;1.40;1.20;;;;;;;;;;5055635;28;20391;-79
2021/10/06 07:14:57;;;;;;;1.93;1.10;;;;;;;;;;5038396;28;20444;-77
2021/10/06 07:17:23;;;;;;;6.23;1.63;;;;;;;;;;5037399;28;20410;-78
2021/10/06 07:19:51;;;;;;;2.90;1.40;;;;;;;;;;5051563;28;20432;-78
2021/10/06 07:23:08;;;;;;;3.60;1.50;;;13.00;1.00;;;;;;5055516;28;20415;-80
2021/10/06 07:25:33;;;;;;;2.80;1.47;;;13.00;1.00;;;;;;5054787;28;20462;-78
2021/10/06 07:28:00;;;;;;;3.90;1.90;;;;;;;;;;5059039;28;20457;-77
2021/10/06 07:30:26;;;;;;;5.73;1.70;;;;;;;;;;5070538;28;20179;-77
2021/10/06 07:32:52;;;;;;;4.13;1.30;;;;;;;;;;5056012;28;20510;-77
2021/10/06 07:35:33;;;;;;;8.43;1.70;;;;;;;;;;5055169;28;20402;-77
2021/10/06 07:38:03;;;;;;;1.67;1.13;;;;;;;;;;5054181;28;20449;-77
2021/10/06 07:40:33;;;;;;;1.53;1.20;;;;;;;;;;5055218;28;20395;-77
2021/10/06 07:42:59;;;;;;;7.13;2.00;;;;;;;;;;5055670;28;20405;-75
2021/10/06 07:45:27;;;;;;;2.47;1.30;;;;;;;;;;5055290;28;20828;-75
2021/10/06 07:47:57;;;;;;;3.53;1.40;;;;;;;;;;5060738;28;20796;-75
2021/10/06 07:50:23;;;;;;;3.33;1.37;;;;;;;;;;5075469;28;20488;-75
2021/10/06 07:52:49;;;;;;;5.40;1.50;;;;;;;;;;5075108;28;20389;-75
2021/10/06 07:55:17;;;;;;;3.13;1.30;;;;;;;;;;5074969;28;20390;-76
2021/10/06 07:57:45;;;;;;;2.00;1.20;;;;;;;;;;5075387;28;20421;-76
2021/10/06 08:00:27;;;;;;;2.80;1.33;;;;;;;;;;5074835;28;20393;-77
2021/10/06 08:03:03;;;;;;;1.70;1.03;;;;;;;;;;5062224;28;20825;-77
2021/10/06 08:05:33;;;;;;;2.20;1.20;;;;;;;;;;5066192;28;20881;-77
2021/10/06 08:08:03;;;;;;;2.93;1.23;;;;;;;;;;5073301;28;20940;-77
2021/10/06 08:10:29;;;;;;;3.77;1.07;;;;;;;;;;5075160;28;20401;-77
2021/10/06 08:12:55;;;;;;;7.07;1.57;;;;;;;;;;5074901;28;20396;-76
2021/10/06 08:15:27;;;;;;;6.83;1.33;;;;;;;;;;5074773;28;20443;-75
2021/10/06 08:17:53;;;;;;;2.77;1.50;;;;;;;;;;5061258;28;20406;-75
2021/10/06 08:20:21;;;;;;;8.30;2.00;;;;;;;;;;5055049;28;20426;-77
2021/10/06 08:22:57;;;;;;;5.13;1.70;;;;;;;;;;5053924;28;20414;-74
2021/10/06 08:25:23;;;;;;;10.33;1.30;;;;;;;;;;5036324;28;20427;-74
2021/10/06 08:27:49;;;;;;;1.63;1.00;;;;;;;;;;5034761;28;20537;-76
2021/10/06 08:30:15;;;;;;;2.53;1.23;;;;;;;;;;5037885;28;20901;-75
2021/10/06 08:32:45;;;;;;;4.77;1.77;;;;;;;;;;5042119;28;20430;-75
2021/10/06 08:35:15;;;;;;;5.83;1.70;;;;;;;;;;5033041;28;20816;-76
2021/10/06 08:37:41;;;;;;;7.60;1.33;;;;;;;;;;5034229;28;20872;-74
2021/10/06 08:40:15;;;;;;;13.47;2.00;;;;;;;;;;5051271;28;20406;-74
2021/10/06 08:42:41;;;;;;;9.43;1.30;;;;;;;;;;5038273;28;20433;-76
2021/10/06 08:45:15;;;;;;;3.70;1.13;;;;;;;;;;5053932;28;20414;-78
2021/10/06 08:47:57;;;;;;;2.27;1.30;;;;;;;;;;5054055;28;20496;-78
2021/10/06 08:50:27;;;;;;;4.07;1.30;;;;;;;;;;5053857;28;20387;-78
2021/10/06 08:52:57;;;;;;;2.10;1.13;;;;;;;;;;5053881;28;20391;-78
2021/10/06 08:55:30;;;;;;;5.40;1.17;;;;;;;;;;5052588;28;20406;-78
2021/10/06 08:58:06;;;;;;;5.73;1.23;;;13.90;1.00;;;;;;5052563;28;20908;-78
2021/10/06 09:00:50;;;;;;;1.80;0.93;;;;;;;;;;5054676;28;20430;-74
2021/10/06 09:03:27;;;;;;;3.37;1.50;;;14.10;1.00;;;;;;5046439;28;20441;-78
2021/10/06 09:06:19;;;;;;;0.97;0.70;;;14.20;1.00;;;;;;5051784;28;20397;-78
2021/10/06 09:09:26;;;;;;;7.23;1.40;;;14.30;1.00;;;;;;5052005;28;20422;-77
2021/10/06 09:12:11;;;;;;;16.17;2.40;;;14.30;1.00;;;;;;5067144;28;20442;-76
2021/10/06 09:14:48;;;;;;;10.67;2.03;;;14.50;1.00;;;;;;5044009;28;20425;-74
2021/10/06 09:17:16;;;;;;;2.07;1.20;;;14.60;1.00;;;;;;5052024;28;20403;-74
2021/10/06 09:19:43;;;;;;;6.23;1.60;;;;;;;;;;5053666;28;20867;-75
2021/10/06 09:22:13;;;;;;;6.63;1.57;;;15.00;1.00;;;;;;5053741;28;20383;-74
2021/10/06 09:24:47;;;;;;;2.70;1.27;;;15.30;1.00;;;;;;5053505;28;20369;-75
2021/10/06 09:27:18;;;;;;;2.23;1.10;;;15.40;1.00;;;;;;5053544;28;20947;-74
2021/10/06 09:29:56;;;;;;;5.47;1.50;;;15.50;1.00;;;;;;5053900;28;20894;-75
2021/10/06 09:32:28;;;;;;;6.63;1.50;;;15.50;1.00;;;;;;5053885;28;20419;-75
2021/10/06 09:35:23;;;;;;;21.03;2.00;;;15.40;1.00;;;;;;5040076;28;20414;-74
2021/10/06 09:37:54;;;;;;;2.50;1.10;;;15.40;1.00;;;;;;5038046;28;20886;-74
2021/10/06 09:40:21;;;;;;;9.47;1.60;;;;;;;;;;5037676;28;20391;-75
2021/10/06 09:42:49;;;;;;;6.90;0.90;;;15.70;1.00;;;;;;5037469;28;20469;-75
2021/10/06 09:45:38;;;;;;;5.17;1.70;;;15.90;1.00;;;;;;5037930;28;21056;-75
2021/10/06 09:48:12;;;;;;;3.13;1.23;;;16.00;1.00;;;;;;5037437;28;20481;-74
2021/10/06 09:50:45;;;;;;;3.23;1.20;;;16.00;1.00;;;;;;5037321;28;20384;-75
2021/10/06 09:53:19;;;;;;;10.07;1.50;;;16.10;1.00;;;;;;5048061;28;20426;-75
2021/10/06 09:55:52;;;;;;;3.70;1.00;;;16.00;1.00;;;;;;5040503;28;20431;-75
2021/10/06 09:58:33;;;;;;;1.63;1.17;;;;;;;;;;5036122;28;20464;-77
2021/10/06 10:01:00;;;;;;;3.20;1.20;;;;;;;;;;5037452;28;20395;-76
2021/10/06 10:03:26;;;;;;;5.17;1.23;;;;;;;;;;5035860;28;20519;-76
2021/10/06 10:05:52;;;;;;;9.30;1.03;;;;;;;;;;5037115;28;20412;-75
2021/10/06 10:08:18;;;;;;;7.33;1.40;;;;;;;;;;5037021;28;20378;-74
2021/10/06 10:10:45;;;;;;;2.53;1.40;;;;;;;;;;5042232;28;20389;-75
2021/10/06 10:13:15;;;;;;;10.13;1.23;;;;;;;;;;5042814;28;20739;-74
2021/10/06 10:15:45;;;;;;;4.50;1.03;;;;;;;;;;5041744;28;20923;-77
2021/10/06 10:18:32;;;;;;;1.47;0.70;;;;;;;;;;5055439;28;20418;-77
2021/10/06 10:21:15;;;;;;;11.60;1.30;;;;;;;;;;5056661;28;20387;-77
2021/10/06 10:23:45;;;;;;;1.90;1.00;;;;;;;;;;5056835;28;20731;-75
2021/10/06 10:26:24;;;;;;;23.63;1.83;;;16.40;1.00;;;;;;5056781;28;20607;-74
2021/10/06 10:28:50;;;;;;;3.03;0.97;;;;;;;;;;5056528;28;20394;-74
2021/10/06 10:31:40;;;;;;;3.33;1.20;;;;;;;;;;5056766;28;20415;-74
2021/10/06 10:34:06;;;;;;;5.90;1.67;;;;;;;;;;5056092;28;20859;-74
2021/10/06 10:36:39;;;;;;;8.47;1.00;;;;;;;;;;5055092;28;20948;-74
2021/10/06 10:39:34;;;;;;;4.03;1.30;;;16.50;1.00;;;;;;5056498;28;20385;-75
2021/10/06 10:42:00;;;;;;;2.30;0.93;;;;;;;;;;5055442;28;20855;-75
2021/10/06 10:44:32;;;;;;;6.10;1.30;;;16.40;1.00;;;;;;5056311;28;20879;-74
2021/10/06 10:47:04;;;;;;;2.53;1.37;;;16.10;1.00;;;;;;5055509;28;20949;-74
2021/10/06 10:49:43;;;;;;;1.77;1.10;;;15.80;1.00;;;;;;5056409;28;20379;-75
2021/10/06 10:52:10;;;;;;;2.10;1.07;;;;;;;;;;5056237;28;20405;-74
2021/10/06 10:54:41;;;;;;;2.70;1.20;;;15.00;1.00;;;;;;5054972;28;20426;-75
2021/10/06 10:57:23;;;;;;;5.50;1.40;;;14.80;1.00;;;;;;5055922;28;20430;-74
2021/10/06 10:59:50;;;;;;;0.80;0.80;;;;;;;;;;5056181;28;20424;-76
2021/10/06 11:02:29;;;;;;;7.70;1.30;;;15.00;1.00;;;;;;5056322;28;20825;-74
2021/10/06 11:05:10;;;;;;;2.10;1.07;;;;;;;;;;5055770;28;20431;-74
2021/10/06 11:07:50;;;;;;;2.00;1.10;;;14.90;1.00;;;;;;5055645;28;20533;-74
2021/10/06 11:10:18;;;;;;;1.93;1.30;;;14.70;1.00;;;;;;5055449;28;20444;-74
2021/10/06 11:12:53;;;;;;;2.63;1.20;;;14.60;1.00;;;;;;5045013;28;20434;-74
2021/10/06 11:15:27;;;;;;;14.83;2.33;;;;;;;;;;5035801;28;20402;-77
2021/10/06 11:18:23;;;;;;;5.40;1.90;;;14.60;1.00;;;;;;5035627;28;20452;-77
2021/10/06 11:21:03;;;;;;;5.90;1.80;;;;;;;;;;5035755;28;20399;-77
2021/10/06 11:23:36;;;;;;;3.73;1.60;;;;;;;;;;5035854;28;20387;-77
2021/10/06 11:26:02;;;;;;;9.50;1.80;;;;;;;;;;5044546;28;20434;-77
2021/10/06 11:28:40;;;;;;;2.60;1.50;;;;;;;;;;5055483;28;20444;-77
2021/10/06 11:31:21;;;;;;;5.40;1.70;;;15.50;1.00;;;;;;5055909;28;20380;-77
2021/10/06 11:33:51;;;;;;;4.53;2.23;;;;;;;;;;5055500;28;20411;-77
2021/10/06 11:36:20;;;;;;;4.40;1.30;;;15.70;1.00;;;;;;5055154;28;20384;-77
2021/10/06 11:39:14;;;;;;;1.27;1.17;;;15.90;1.00;;;;;;5055274;28;20420;-77
2021/10/06 11:41:46;;;;;;;11.10;2.00;;;16.00;1.00;;;;;;5055224;28;20383;-77
2021/10/06 11:44:41;;;;;;;7.40;1.57;;;;;;;;;;5056574;28;20906;-78
2021/10/06 11:47:12;;;;;;;8.80;1.70;;;16.10;1.00;;;;;;5024856;28;20866;-77
2021/10/06 11:49:41;;;;;;;2.20;1.17;;;16.00;1.00;;;;;;5033151;28;20370;-78
2021/10/06 11:52:11;;;;;;;2.17;1.20;;;15.90;1.00;;;;;;5037687;28;20558;-78
2021/10/06 11:54:37;;;;;;;3.07;1.40;;;;;;;;;;5026668;28;20414;-78
2021/10/06 11:57:22;;;;;;;6.73;1.70;;;;;;;;;;5012989;28;20444;-78
2021/10/06 11:59:52;;;;;;;3.73;1.70;;;;;;;;;;5013041;28;20382;-78
2021/10/06 12:02:21;;;;;;;4.10;2.27;;;;;;;;;;5013053;28;20388;-79
2021/10/06 12:04:54;;;;;;;11.73;2.10;;;15.70;1.00;;;;;;5013296;28;20416;-78
2021/10/06 12:07:23;;;;;;;2.33;1.50;;;15.80;1.00;;;;;;5045910;28;20432;-78
2021/10/06 12:10:10;;;;;;;5.47;2.33;;;15.70;1.00;;;;;;5052525;28;20406;-78
2021/10/06 12:12:46;;;;;;;1.93;1.10;;;;;;;;;;5033852;28;20430;-78
2021/10/06 12:15:15;;;;;;;4.30;1.60;;;;;;;;;;5026359;28;20412;-78
2021/10/06 12:17:45;;;;;;;4.50;1.60;;;;;;;;;;5019213;28;20514;-78
2021/10/06 12:20:12;;;;;;;10.63;2.20;;;;;;;;;;5032502;28;20395;-75
2021/10/06 12:22:40;;;;;;;6.73;1.60;;;;;;;;;;5038791;28;20413;-75
2021/10/06 12:25:10;;;;;;;1.87;1.40;;;;;;;;;;5064560;28;20461;-75
2021/10/06 12:27:38;;;;;;;7.90;2.20;;;15.00;1.00;;;;;;5062812;28;20466;-74
2021/10/06 12:30:22;;;;;;;14.70;2.47;;;15.00;1.00;;;;;;5053803;28;21820;-75
2021/10/06 12:32:50;;;;;;;4.53;1.77;;;15.00;1.00;;;;;;5034790;28;20395;-78
2021/10/06 12:35:27;;;;;;;15.93;2.50;;;;;;;;;;5033853;28;20399;-78
2021/10/06 12:38:01;;;;;;;5.63;1.80;;;15.10;1.00;;;;;;5051410;28;20402;-78
2021/10/06 12:40:39;;;;;;;3.27;2.00;;;;;;;;;;5053968;28;20752;-78
2021/10/06 12:43:16;;;;;;;10.03;2.53;;;15.20;1.00;;;;;;5051817;28;20422;-78
2021/10/06 12:46:05;;;;;;;5.90;2.27;;;;;;;;;;5051072;28;20473;-78
2021/10/06 12:48:52;;;;;;;4.37;2.10;;;15.30;1.00;;;;;;4999990;28;20527;-78
2021/10/06 12:51:23;;;;;;;4.93;2.27;;;;;;;;;;5010586;28;20398;-79
2021/10/06 12:54:27;;;;;;;2.50;1.93;;;15.00;1.00;;;;;;5015325;28;20941;-78
2021/10/06 12:57:00;;;;;;;2.43;1.90;;;15.00;1.00;;;;;;5024375;28;20965;-78
2021/10/06 12:59:30;;;;;;;8.33;2.20;;;14.90;1.00;;;;;;5011857;28;20395;-78
2021/10/06 13:02:10;;;;;;;6.13;2.67;;;;;;;;;;5008745;28;21009;-74
2021/10/06 13:04:37;;;;;;;6.40;2.03;;;15.00;1.00;;;;;;5007771;28;20416;-75
2021/10/06 13:07:09;;;;;;;10.00;2.60;;;15.00;1.00;;;;;;5004064;28;20464;-74
2021/10/06 13:09:37;;;;;;;6.53;2.33;;;15.10;1.00;;;;;;5011569;28;20424;-75
2021/10/06 13:12:05;;;;;;;2.67;1.67;;;15.20;1.00;;;;;;5006992;28;20797;-74
2021/10/06 13:14:31;;;;;;;10.07;2.47;;;15.20;1.00;;;;;;5014938;28;20910;-74
2021/10/06 13:17:15;;;;;;;7.23;2.20;;;;;;;;;;5024090;28;20424;-78
2021/10/06 13:19:56;;;;;;;3.13;1.90;;;15.20;1.00;;;;;;5012385;28;20412;-77
2021/10/06 13:22:44;;;;;;;4.63;2.07;;;15.10;1.00;;;;;;5011389;28;20982;-77
2021/10/06 13:25:15;;;;;;;7.30;1.97;;;;;;;;;;5026892;28;20406;-77
2021/10/06 13:27:50;;;;;;;6.17;2.33;;;15.10;1.00;;;;;;5041869;28;21201;-79
2021/10/06 13:30:34;;;;;;;3.23;1.77;;;15.20;1.00;;;;;;5032754;28;20422;-77
2021/10/06 13:33:09;;;;;;;5.40;1.93;;;;;;;;;;5033904;28;20399;-78
2021/10/06 13:35:35;;;;;;;13.43;2.07;;;;;;;;;;5033275;28;20518;-78
2021/10/06 13:38:03;;;;;;;5.40;1.90;;;;;;;;;;5032965;28;20903;-78
2021/10/06 13:40:39;;;;;;;6.53;2.30;;;;;;;;;;5033339;28;20840;-74
2021/10/06 13:43:05;;;;;;;18.13;3.07;;;;;;;;;;5032137;28;20403;-75
2021/10/06 13:45:31;;;;;;;6.70;1.87;;;;;;;;;;5043582;28;20376;-74
2021/10/06 13:48:03;;;;;;;13.20;3.20;;;;;;;;;;5044123;28;21128;-74
2021/10/06 13:50:29;;;;;;;5.67;2.40;;;;;;;;;;5033271;28;20541;-74
2021/10/06 13:52:56;;;;;;;7.70;2.07;;;;;;;;;;5033447;28;20396;-74
2021/10/06 13:55:27;;;;;;;8.57;2.33;;;;;;;;;;5047803;28;20414;-74
2021/10/06 13:57:57;;;;;;;3.20;2.03;;;;;;;;;;5037705;28;20722;-78
2021/10/06 14:00:50;;;;;;;2.03;1.83;;;15.50;1.00;;;;;;5033196;28;20415;-78
2021/10/06 14:03:56;;;;;;;31.03;4.23;;;15.50;1.00;;;;;;5046815;28;20439;-79
2021/10/06 14:06:22;;;;;;;2.27;1.83;;;;;;;;;;5041004;28;20499;-77
2021/10/06 14:08:48;;;;;;;4.87;1.70;;;;;;;;;;5053273;28;20386;-75
2021/10/06 14:11:33;;;;;;;2.77;2.30;;;;;;;;;;5053030;28;20365;-77
2021/10/06 14:14:03;;;;;;;1.67;1.53;;;;;;;;;;5053172;28;20444;-76
2021/10/06 14:16:45;;;;;;;2.27;1.80;;;;;;;;;;5053080;28;20729;-79
2021/10/06 14:19:15;;;;;;;2.80;1.47;;;;;;;;;;5053410;28;20485;-88
2021/10/06 14:22:15;;;;;;;3.97;1.40;;;15.10;1.00;;;;;;5054871;28;20407;-87
2021/10/06 14:24:45;;;;;;;2.20;1.37;;;;;;;;;;5057476;28;20397;-86
2021/10/06 14:27:21;;;;;;;2.00;1.30;;;;;;;;;;5057281;28;20453;-87
2021/10/06 14:32:51;;;;;;;2.23;1.23;;;;;;;;;;5056662;28;20805;-83
2021/10/06 14:35:27;;;;;;;1.40;1.30;;;;;;;;;;5066137;28;20436;-82
2021/10/06 14:38:09;;;;;;;8.70;2.13;;;;;;;;;;5054848;28;20932;-81
2021/10/06 14:40:45;;;;;;;7.30;1.43;;;;;;;;;;5035026;28;20419;-80
2021/10/06 14:43:16;;;;;;;3.90;1.13;;;;;;;;;;5041628;28;20473;-80
2021/10/06 14:46:15;;;;;;;10.83;1.10;;;15.80;1.00;;;;;;5036530;28;20755;-80
2021/10/06 14:49:14;;;;;;;2.27;1.20;;;15.90;1.00;;;;;;5037172;28;20829;-86
2021/10/06 14:52:14;;;;;;;1.87;1.00;;;15.90;1.00;;;;;;5048522;28;20394;-86
2021/10/06 14:54:47;;;;;;;1.13;0.80;;;;;;;;;;5035840;28;20431;-78
2021/10/06 14:57:15;;;;;;;4.40;1.00;;;;;;;;;;5036292;28;20387;-79
2021/10/06 14:59:45;;;;;;;6.40;1.30;;;;;;;;;;5034849;28;20771;-79
2021/10/06 15:02:16;;;;;;;2.00;0.90;;;15.70;1.00;;;;;;5069201;28;20398;-76